Time;durP1;ratioP1;P1;durP2;ratioP2;P2;SDS_P1;SDS_P2;PMS_P1;PMS_P2;Temp;Humidity;BMP_temperature;BMP_pressure;BME280_temperature;BME280_humidity;BME280_pressure;Samples;Min_cycle;Max_cycle;Signal;HPM_P1;HPM_P2
2022/02/07 00:00:35;;;;;;;0.00;0.00;;;4.40;99.90;;;;;;10382854;28;20111;-61
2022/02/07 00:05:37;;;;;;;0.00;0.00;;;4.60;99.90;;;;;;10376616;28;20053;-61
2022/02/07 00:10:40;;;;;;;0.00;0.00;;;4.50;99.90;;;;;;10383172;28;20073;-62
2022/02/07 00:15:42;;;;;;;3.83;0.20;;;4.40;99.90;;;;;;10382509;28;20049;-62
2022/02/07 00:20:44;;;;;;;0.40;0.40;;;4.50;99.90;;;;;;10379289;28;20081;-60
2022/02/07 00:25:45;;;;;;;1.25;0.28;;;4.40;99.90;;;;;;10372883;28;20049;-60
2022/02/07 00:30:47;;;;;;;1.65;0.40;;;4.60;98.80;;;;;;10381438;28;20041;-60
2022/02/07 00:35:49;;;;;;;2.40;0.50;;;4.50;99.80;;;;;;10375088;28;20049;-61
2022/02/07 00:46:06;;;;;;;8.20;0.35;;;4.40;98.40;;;;;;10379702;28;20076;-61
2022/02/07 00:51:10;;;;;;;2.15;0.30;;;4.40;97.00;;;;;;10380774;28;20137;-62
2022/02/07 00:56:11;;;;;;;0.32;0.10;;;4.40;95.10;;;;;;10371504;28;20073;-61
2022/02/07 01:01:13;;;;;;;3.38;0.40;;;4.30;94.40;;;;;;10380971;28;20054;-61
2022/02/07 01:06:15;;;;;;;5.07;0.40;;;4.40;92.80;;;;;;10381988;28;20165;-62
2022/02/07 01:11:31;;;;;;;3.88;0.40;;;4.40;93.50;;;;;;10381806;28;20128;-62
2022/02/07 01:22:13;;;;;;;6.32;0.30;;;4.40;95.50;;;;;;10380105;28;20118;-60
2022/02/07 01:53:55;;;;;;;0.10;0.10;;;2.80;99.90;;;;;;10382683;28;20049;-61
2022/02/07 01:58:57;;;;;;;2.20;0.10;;;3.00;99.90;;;;;;10383113;28;20049;-62
2022/02/07 02:03:59;;;;;;;0.38;0.38;;;3.00;99.90;;;;;;10382568;28;20050;-61
2022/02/07 02:09:02;;;;;;;1.08;0.30;;;3.00;99.90;;;;;;10385911;28;20065;-61
2022/02/07 02:55:33;;;;;;;3.92;0.30;;;3.20;99.90;;;;;;10380362;28;20141;-61
2022/02/07 03:00:35;;;;;;;4.35;0.20;;;3.10;99.90;;;;;;10374873;28;20050;-61
2022/02/07 03:05:37;;;;;;;6.03;0.50;;;3.30;99.90;;;;;;10379166;28;20052;-62
2022/02/07 03:21:06;;;;;;;1.30;0.35;;;3.30;99.90;;;;;;10384721;28;20057;-60
2022/02/07 03:26:12;;;;;;;2.70;0.30;;;3.30;99.90;;;;;;10380578;28;20118;-61
2022/02/07 03:31:23;;;;;;;3.35;0.30;;;3.40;99.90;;;;;;10384396;28;20132;-62
2022/02/07 03:36:29;;;;;;;2.33;0.20;;;3.50;98.20;;;;;;10375083;28;20137;-60
2022/02/07 03:41:30;;;;;;;5.63;0.30;;;3.40;99.90;;;;;;10382437;28;20046;-61
2022/02/07 03:46:32;;;;;;;2.80;0.40;;;3.50;99.90;;;;;;10387964;28;20057;-61
2022/02/07 03:51:34;;;;;;;1.73;0.50;;;3.30;99.90;;;;;;10381357;28;20891;-61
2022/02/07 03:56:36;;;;;;;6.82;0.85;;;3.40;99.90;;;;;;10381898;28;20102;-61
2022/02/07 04:01:38;;;;;;;3.88;0.60;;;3.30;99.90;;;;;;10375955;28;20133;-61
2022/02/07 04:06:41;;;;;;;5.13;0.50;;;3.40;99.90;;;;;;10382977;28;20072;-61
2022/02/07 04:11:48;;;;;;;4.57;0.47;;;3.50;99.90;;;;;;10381330;28;20049;-61
2022/02/07 04:16:50;;;;;;;4.82;0.50;;;3.40;99.90;;;;;;10378804;28;20122;-60
2022/02/07 04:21:53;;;;;;;3.67;0.90;;;3.60;99.90;;;;;;10383480;28;20129;-61
2022/02/07 04:26:55;;;;;;;4.57;0.50;;;3.60;99.90;;;;;;10377422;28;20053;-61
2022/02/07 04:31:57;;;;;;;4.72;0.52;;;3.60;98.90;;;;;;10381306;28;20135;-61
2022/02/07 04:36:59;;;;;;;7.63;1.48;;;3.60;98.50;;;;;;10384008;28;20478;-61
2022/02/07 04:42:05;;;;;;;3.75;0.57;;;3.60;99.90;;;;;;10375563;28;20501;-61
2022/02/07 04:47:21;;;;;;;2.25;0.47;;;3.60;99.90;;;;;;10385599;28;20115;-61
2022/02/07 05:02:58;;;;;;;8.75;1.65;;;3.50;99.10;;;;;;10388687;28;20205;-61
2022/02/07 05:13:44;;;;;;;5.50;0.40;;;3.70;99.40;;;;;;10384568;28;20065;-61
2022/02/07 05:18:49;;;;;;;5.90;0.80;;;3.60;99.90;;;;;;10387474;28;20073;-61
2022/02/07 05:23:53;;;;;;;3.40;0.35;;;3.60;99.90;;;;;;10387723;28;20453;-61
2022/02/07 05:28:58;;;;;;;4.75;0.50;;;3.70;96.60;;;;;;10387391;28;20095;-62
2022/02/07 05:34:01;;;;;;;2.97;0.40;;;3.70;98.30;;;;;;10386632;28;20511;-61
2022/02/07 05:39:03;;;;;;;5.20;0.30;;;3.60;99.40;;;;;;10384152;28;20131;-61
2022/02/07 05:44:04;;;;;;;5.03;0.60;;;3.60;99.10;;;;;;10382928;28;20124;-62
2022/02/07 05:49:06;;;;;;;4.47;0.30;;;3.60;99.90;;;;;;10388547;28;20045;-60
2022/02/07 05:54:08;;;;;;;6.85;0.45;;;3.70;99.80;;;;;;10381210;28;20065;-60
2022/02/07 05:59:10;;;;;;;6.78;0.45;;;3.60;99.90;;;;;;10382818;28;20073;-60
2022/02/07 06:04:12;;;;;;;6.93;0.50;;;3.70;99.40;;;;;;10387395;28;20380;-61
2022/02/07 06:09:13;;;;;;;7.88;0.40;;;3.70;99.90;;;;;;10385938;28;20122;-60
2022/02/07 06:14:16;;;;;;;4.10;0.30;;;3.70;99.80;;;;;;10385106;28;20085;-60
2022/02/07 06:19:17;;;;;;;0.68;0.30;;;3.70;99.90;;;;;;10381629;28;20153;-60
2022/02/07 06:24:19;;;;;;;5.20;0.55;;;3.70;99.90;;;;;;10385597;28;20099;-60
2022/02/07 06:29:21;;;;;;;3.30;0.30;;;3.80;99.90;;;;;;10381183;28;20061;-60
2022/02/07 06:34:27;;;;;;;6.05;0.60;;;3.80;99.90;;;;;;10383430;28;20083;-60
2022/02/07 06:39:28;;;;;;;8.07;0.75;;;3.80;99.70;;;;;;10381282;28;20130;-67
2022/02/07 06:44:30;;;;;;;4.85;0.60;;;3.90;98.40;;;;;;10379980;28;20122;-67
2022/02/07 06:49:32;;;;;;;5.43;0.55;;;3.80;99.10;;;;;;10386717;28;20041;-66
2022/02/07 06:54:35;;;;;;;7.75;0.52;;;3.90;98.20;;;;;;10381179;28;20041;-66
2022/02/07 06:59:41;;;;;;;6.05;0.60;;;3.90;99.40;;;;;;10380803;28;20060;-67
2022/02/07 07:04:43;;;;;;;1.08;0.45;;;3.90;98.90;;;;;;10376415;28;20034;-66
2022/02/07 07:09:46;;;;;;;4.13;0.65;;;4.00;98.90;;;;;;10383319;28;20045;-67
2022/02/07 07:14:52;;;;;;;6.25;1.08;;;4.10;97.80;;;;;;10378612;28;20041;-66
2022/02/07 07:19:53;;;;;;;2.88;0.40;;;4.10;97.30;;;;;;10381274;28;20059;-66
2022/02/07 07:24:55;;;;;;;6.38;0.70;;;4.10;97.40;;;;;;10382352;28;20072;-66
2022/02/07 07:29:57;;;;;;;5.32;0.55;;;4.20;97.00;;;;;;10390810;28;20057;-66
2022/02/07 07:35:00;;;;;;;6.45;0.95;;;4.30;95.30;;;;;;10377856;28;20127;-67
2022/02/07 07:40:02;;;;;;;5.30;0.57;;;4.20;96.00;;;;;;10384815;28;20077;-67
2022/02/07 07:45:05;;;;;;;0.95;0.40;;;4.40;94.70;;;;;;10384941;28;20057;-67
2022/02/07 07:50:17;;;;;;;7.20;0.93;;;4.30;96.10;;;;;;10379498;28;20132;-67
2022/02/07 08:05:54;;;;;;;7.65;0.60;;;4.50;95.60;;;;;;10383818;28;19925;-66
2022/02/07 08:11:04;;;;;;;11.63;0.55;;;4.60;94.80;;;;;;10378896;28;20060;-66
2022/02/07 08:16:05;;;;;;;7.65;0.65;;;4.60;96.00;;;;;;10380399;28;20065;-66
2022/02/07 08:21:07;;;;;;;1.58;0.50;;;4.60;95.90;;;;;;10382991;28;20045;-66
2022/02/07 08:26:09;;;;;;;6.03;0.40;;;4.70;94.50;;;;;;10377592;28;20566;-66
2022/02/07 08:31:20;;;;;;;2.05;0.38;;;4.80;93.50;;;;;;10380467;28;20391;-66
2022/02/07 08:36:22;;;;;;;6.32;0.80;;;4.90;93.10;;;;;;10375248;28;20049;-65
2022/02/07 08:41:25;;;;;;;6.95;0.75;;;4.90;93.60;;;;;;10380107;28;20077;-66
2022/02/07 08:46:27;;;;;;;5.45;0.68;;;5.00;91.90;;;;;;10385875;28;20123;-66
2022/02/07 08:51:31;;;;;;;9.30;1.10;;;5.10;92.00;;;;;;10378689;28;20126;-66
2022/02/07 08:56:50;;;;;;;4.75;0.55;;;5.10;92.40;;;;;;10380526;28;20076;-66
2022/02/07 09:02:06;;;;;;;5.63;0.50;;;5.20;93.30;;;;;;10376426;28;20041;-67
2022/02/07 09:07:13;;;;;;;10.10;0.75;;;5.20;92.90;;;;;;10378122;28;20161;-66
2022/02/07 09:12:15;;;;;;;;;;;5.30;91.90;;;;;;10380200;28;20465;-66
2022/02/07 09:17:17;;;;;;;3.40;0.55;;;5.30;91.10;;;;;;10376453;28;19960;-66
2022/02/07 09:22:18;;;;;;;4.10;0.50;;;5.30;91.10;;;;;;10365523;28;20046;-66
2022/02/07 09:27:20;;;;;;;2.55;0.52;;;5.30;90.90;;;;;;10374731;28;20041;-66
2022/02/07 09:32:22;;;;;;;7.38;1.02;;;5.40;91.30;;;;;;10382346;28;20076;-66
2022/02/07 09:37:23;;;;;;;2.90;0.40;;;5.40;91.70;;;;;;10382563;28;20085;-67
2022/02/07 09:42:26;;;;;;;2.35;0.50;;;5.50;90.50;;;;;;10384240;28;20656;-66
2022/02/07 09:47:27;;;;;;;1.67;0.85;;;5.50;89.70;;;;;;10370132;28;20062;-66
2022/02/07 09:52:29;;;;;;;4.85;0.80;;;5.70;90.10;;;;;;10381716;28;20077;-67
2022/02/07 09:57:31;;;;;;;3.92;0.43;;;5.70;89.10;;;;;;10381824;28;20519;-68
2022/02/07 10:02:45;;;;;;;6.63;1.75;;;5.80;87.60;;;;;;10381556;28;20131;-65
2022/02/07 10:08:14;;;;;;;5.68;0.40;;;5.90;88.10;;;;;;10384007;28;20484;-66
2022/02/07 10:13:36;;;;;;;;;;;6.00;87.70;;;;;;10380696;28;20546;-66
2022/02/07 10:18:55;;;;;;;6.22;0.70;;;6.00;86.80;;;;;;10384944;28;20262;-66
2022/02/07 10:39:55;;;;;;;5.57;0.55;;;6.30;85.70;;;;;;10383364;28;20057;-67
2022/02/07 10:45:01;;;;;;;2.65;0.50;;;6.40;85.30;;;;;;10387654;28;20052;-67
2022/02/07 10:50:11;;;;;;;5.60;0.60;;;6.50;85.40;;;;;;10383724;28;20057;-66
2022/02/07 10:55:24;;;;;;;5.18;0.68;;;6.50;84.50;;;;;;10395321;28;20049;-67
2022/02/07 11:00:35;;;;;;;12.52;1.15;;;6.50;83.20;;;;;;10381812;28;20118;-66
2022/02/07 11:05:44;;;;;;;5.93;1.05;;;6.60;83.80;;;;;;10384428;28;20053;-66
2022/02/07 11:16:23;;;;;;;1.75;0.60;;;6.70;84.60;;;;;;10376986;28;20053;-66
2022/02/07 11:21:39;;;;;;;8.65;0.50;;;6.80;81.90;;;;;;10383901;28;20053;-66
2022/02/07 11:26:49;;;;;;;6.10;0.82;;;6.80;83.40;;;;;;10377621;28;20049;-65
2022/02/07 11:31:52;;;;;;;4.97;0.60;;;6.90;82.00;;;;;;10378842;28;20083;-67
2022/02/07 11:37:23;;;;;;;6.30;1.40;;;7.00;83.20;;;;;;10379697;28;20631;-66
2022/02/07 11:42:28;;;;;;;5.93;0.52;;;6.90;82.50;;;;;;10374799;28;20099;-65
2022/02/07 11:47:33;;;;;;;11.10;1.02;;;7.10;82.90;;;;;;10380405;28;20054;-67
2022/02/07 11:52:47;;;;;;;10.23;0.70;;;6.90;81.70;;;;;;10378096;28;20056;-66
2022/02/07 11:58:37;;;;;;;4.93;0.73;;;6.80;81.70;;;;;;10374642;28;20107;-65
2022/02/07 12:03:20;;;;;;;5.63;0.45;;;6.80;82.70;;;;;;10365083;28;20049;-66
2022/02/07 12:08:24;;;;;;;9.20;1.23;;;7.00;84.10;;;;;;10368188;28;20604;-65
2022/02/07 12:13:36;;;;;;;6.05;0.70;;;6.90;82.90;;;;;;10377625;28;20119;-66
2022/02/07 12:18:38;;;;;;;4.28;0.40;;;6.90;84.10;;;;;;10376610;28;20041;-66
2022/02/07 12:23:40;;;;;;;2.25;0.32;;;6.90;84.90;;;;;;10373681;28;20120;-66
2022/02/07 12:28:46;;;;;;;3.05;0.45;;;6.80;88.60;;;;;;10382083;28;20164;-66
2022/02/07 12:34:12;;;;;;;2.40;0.45;;;6.50;91.40;;;;;;10393937;28;20041;-66
2022/02/07 12:39:15;;;;;;;5.63;0.40;;;6.20;93.40;;;;;;10378547;28;20053;-65
2022/02/07 12:44:22;;;;;;;3.90;0.85;;;6.20;97.10;;;;;;10378874;28;20037;-66
2022/02/07 12:49:25;;;;;;;;;;;6.10;99.40;;;;;;10378544;28;20050;-66
2022/02/07 12:54:27;;;;;;;5.25;1.17;;;6.00;99.90;;;;;;10377200;28;19932;-66
2022/02/07 12:59:29;;;;;;;8.93;0.88;;;5.80;99.90;;;;;;10377640;28;21511;-67
2022/02/07 13:04:32;;;;;;;10.32;0.68;;;5.40;99.90;;;;;;10398006;28;20486;-65
2022/02/07 13:09:42;;;;;;;6.63;0.60;;;5.40;99.90;;;;;;10383608;28;20128;-65
2022/02/07 13:14:49;;;;;;;2.97;0.38;;;5.50;99.90;;;;;;10387639;28;21175;-66
2022/02/07 13:19:53;;;;;;;7.90;1.10;;;5.70;99.90;;;;;;10388206;28;20550;-66
2022/02/07 13:24:57;;;;;;;4.75;0.57;;;5.80;99.90;;;;;;10385418;28;20090;-66
2022/02/07 13:29:58;;;;;;;6.35;1.38;;;6.00;99.90;;;;;;10365582;28;20057;-65
2022/02/07 13:35:05;;;;;;;5.60;0.50;;;6.30;93.40;;;;;;10384234;28;20111;-65
2022/02/07 13:40:07;;;;;;;6.82;0.80;;;6.60;88.60;;;;;;10386341;28;20053;-65
2022/02/07 13:45:11;;;;;;;2.63;0.20;;;6.60;89.70;;;;;;10385390;28;20604;-65
2022/02/07 13:50:18;;;;;;;4.65;0.30;;;5.90;97.20;;;;;;10388278;28;20120;-66
2022/02/07 13:55:24;;;;;;;5.13;0.80;;;5.60;99.90;;;;;;10390979;28;20065;-66
2022/02/07 14:00:36;;;;;;;10.13;1.08;;;5.40;99.90;;;;;;10383736;28;20065;-66
2022/02/07 14:05:47;;;;;;;3.88;0.55;;;5.50;99.60;;;;;;10381665;28;20656;-66
2022/02/07 14:10:51;;;;;;;3.28;0.50;;;5.70;98.20;;;;;;10386492;28;20049;-66
2022/02/07 14:15:53;;;;;;;5.95;0.38;;;6.00;97.80;;;;;;10386342;28;20477;-66
2022/02/07 14:20:55;;;;;;;2.15;0.47;;;6.10;96.10;;;;;;10380267;28;20057;-66
2022/02/07 14:26:00;;;;;;;3.20;0.30;;;6.30;96.20;;;;;;10388045;28;20049;-66
2022/02/07 14:31:02;;;;;;;7.47;0.60;;;6.60;94.50;;;;;;10377951;28;20076;-66
2022/02/07 14:36:05;;;;;;;6.45;1.00;;;6.80;91.40;;;;;;10378917;28;20053;-66
2022/02/07 14:41:09;;;;;;;6.15;0.65;;;6.70;88.80;;;;;;10387981;28;20045;-66
2022/02/07 14:46:21;;;;;;;3.60;0.50;;;6.80;88.80;;;;;;10381027;28;20049;-66
2022/02/07 14:51:23;;;;;;;9.10;1.02;;;6.80;84.90;;;;;;10390075;28;20081;-65
2022/02/07 14:56:25;;;;;;;8.50;0.73;;;6.70;85.40;;;;;;10381895;28;20088;-65
2022/02/07 15:01:27;;;;;;;5.85;0.60;;;6.70;85.50;;;;;;10377945;28;20057;-65
2022/02/07 15:06:29;;;;;;;7.93;1.00;;;6.70;85.10;;;;;;10383198;28;20067;-65
2022/02/07 15:11:31;;;;;;;2.03;0.50;;;6.60;85.20;;;;;;10381121;28;20065;-65
2022/02/07 15:16:33;;;;;;;3.90;0.38;;;6.60;83.70;;;;;;10378989;28;20057;-65
2022/02/07 15:21:34;;;;;;;2.75;0.30;;;6.60;83.80;;;;;;10385218;28;20132;-62
2022/02/07 15:26:36;;;;;;;3.63;0.30;;;6.70;80.90;;;;;;10384787;28;20047;-62
2022/02/07 15:31:44;;;;;;;2.58;0.82;;;6.70;82.80;;;;;;10381397;28;20073;-62
2022/02/07 15:36:46;;;;;;;1.75;0.25;;;6.70;83.40;;;;;;10374886;28;20049;-61
2022/02/07 15:41:47;;;;;;;4.82;0.30;;;6.80;79.80;;;;;;10379441;28;20077;-62
2022/02/07 15:46:49;;;;;;;3.72;0.30;;;6.80;78.80;;;;;;10385625;28;20091;-66
2022/02/07 15:51:52;;;;;;;4.40;0.45;;;6.90;76.80;;;;;;10378560;28;20041;-65
2022/02/07 15:56:54;;;;;;;3.03;0.30;;;6.90;76.80;;;;;;10381341;28;20041;-64
2022/02/07 16:01:55;;;;;;;3.75;0.20;;;6.80;76.10;;;;;;10382643;28;20049;-66
2022/02/07 16:06:57;;;;;;;2.60;0.40;;;6.70;75.70;;;;;;10378744;28;20077;-65
2022/02/07 16:12:01;;;;;;;2.25;0.17;;;6.60;76.80;;;;;;10381839;28;20130;-66
2022/02/07 16:17:03;;;;;;;3.10;0.30;;;6.40;77.50;;;;;;10380083;28;20073;-66
2022/02/07 16:22:07;;;;;;;2.45;0.20;;;6.30;77.90;;;;;;10383226;28;20127;-65
2022/02/07 16:27:10;;;;;;;3.22;0.50;;;6.20;78.60;;;;;;10380963;28;20127;-66
2022/02/07 16:32:13;;;;;;;1.52;0.30;;;6.20;79.40;;;;;;10373892;28;20556;-64
2022/02/07 16:37:15;;;;;;;6.18;0.30;;;6.10;80.20;;;;;;10381610;28;20056;-65
2022/02/07 16:42:16;;;;;;;5.50;0.25;;;5.90;81.20;;;;;;10387382;28;20126;-65
2022/02/07 16:47:18;;;;;;;1.70;0.25;;;5.90;81.20;;;;;;10391758;28;20510;-64
2022/02/07 16:52:20;;;;;;;4.00;0.47;;;5.80;82.00;;;;;;10388428;28;20081;-65
2022/02/07 16:57:22;;;;;;;2.40;0.30;;;5.60;82.30;;;;;;10386370;28;20128;-67
2022/02/07 17:02:26;;;;;;;3.28;0.35;;;5.60;82.70;;;;;;10404336;28;20049;-65
2022/02/07 17:07:28;;;;;;;8.27;0.22;;;5.60;81.70;;;;;;10388686;28;20107;-65
2022/02/07 17:12:30;;;;;;;1.08;0.60;;;5.50;81.80;;;;;;10384719;28;20049;-65
2022/02/07 17:17:32;;;;;;;3.17;0.90;;;5.40;82.60;;;;;;10384793;28;20443;-64
2022/02/07 17:22:34;;;;;;;4.95;0.47;;;5.30;82.70;;;;;;10387888;28;20053;-65
2022/02/07 17:27:36;;;;;;;7.72;0.55;;;5.20;83.00;;;;;;10388688;28;20586;-63
2022/02/07 17:32:39;;;;;;;3.13;0.30;;;5.20;83.80;;;;;;10383767;28;20080;-64
2022/02/07 17:37:42;;;;;;;6.10;1.15;;;5.10;84.90;;;;;;10386918;28;20107;-65
2022/02/07 17:42:44;;;;;;;4.32;0.50;;;4.90;86.00;;;;;;10380985;28;20112;-64
2022/02/07 17:47:48;;;;;;;3.50;0.40;;;4.90;87.30;;;;;;10384944;28;20046;-64
2022/02/07 17:52:49;;;;;;;5.30;0.50;;;4.80;87.50;;;;;;10384551;28;20103;-63
2022/02/07 17:57:52;;;;;;;5.13;0.52;;;4.70;87.20;;;;;;10384452;28;20091;-64
2022/02/07 18:02:54;;;;;;;8.98;0.50;;;4.70;87.40;;;;;;10389895;28;20404;-64
2022/02/07 18:08:02;;;;;;;4.07;1.75;;;4.70;87.10;;;;;;10386383;28;20551;-65
2022/02/07 18:13:04;;;;;;;3.53;0.60;;;4.70;86.20;;;;;;10396592;28;20146;-64
2022/02/07 18:18:08;;;;;;;8.45;1.95;;;4.70;86.70;;;;;;10382108;28;20073;-64
2022/02/07 18:23:12;;;;;;;2.67;0.70;;;4.70;86.60;;;;;;10381356;28;20052;-64
2022/02/07 18:28:21;;;;;;;2.40;0.50;;;4.60;87.20;;;;;;10385032;28;20046;-63
2022/02/07 18:33:23;;;;;;;3.55;0.30;;;4.50;87.70;;;;;;10380533;28;20064;-64
2022/02/07 18:38:28;;;;;;;4.85;0.47;;;4.50;88.50;;;;;;10386200;28;20140;-63
2022/02/07 18:43:31;;;;;;;7.70;0.47;;;4.40;88.80;;;;;;10372416;28;20054;-63
2022/02/07 18:48:37;;;;;;;3.90;0.45;;;4.30;89.80;;;;;;10386604;28;20038;-65
2022/02/07 18:53:41;;;;;;;8.00;0.40;;;4.20;90.20;;;;;;10380991;28;20176;-62
2022/02/07 18:58:55;;;;;;;3.20;0.57;;;4.20;90.30;;;;;;10384133;28;20048;-63
2022/02/07 19:04:07;;;;;;;3.33;0.40;;;4.20;90.40;;;;;;10383983;28;20459;-63
2022/02/07 19:09:10;;;;;;;3.35;0.60;;;4.10;90.90;;;;;;10380641;28;20054;-63
2022/02/07 19:14:12;;;;;;;3.22;0.40;;;4.00;91.20;;;;;;10382051;28;20124;-63
2022/02/07 19:19:23;;;;;;;6.57;0.63;;;4.00;91.60;;;;;;10390819;28;20053;-64
2022/02/07 19:24:42;;;;;;;4.35;0.50;;;3.80;92.40;;;;;;10382098;28;20476;-64
2022/02/07 19:29:49;;;;;;;2.38;0.90;;;3.70;93.30;;;;;;10382019;28;20065;-63
2022/02/07 19:34:57;;;;;;;1.10;0.50;;;3.60;94.00;;;;;;10384277;28;20107;-64
2022/02/07 19:39:59;;;;;;;4.57;0.70;;;3.60;94.10;;;;;;10381387;28;20180;-63
2022/02/07 19:45:13;;;;;;;2.17;0.60;;;3.50;94.80;;;;;;10381726;28;20488;-63
2022/02/07 19:50:15;;;;;;;7.65;0.82;;;3.30;97.40;;;;;;10383703;28;20041;-64
2022/02/07 19:55:25;;;;;;;8.43;0.88;;;3.10;99.90;;;;;;10379941;28;20543;-63
2022/02/07 20:00:33;;;;;;;6.88;1.13;;;2.90;99.90;;;;;;10393958;28;20061;-62
2022/02/07 20:05:39;;;;;;;6.32;1.60;;;2.80;99.90;;;;;;10400240;28;20048;-63
2022/02/07 20:10:48;;;;;;;;;;;2.70;99.90;;;;;;10377439;28;20195;-64
2022/02/07 20:15:51;;;;;;;5.80;1.47;;;2.80;99.90;;;;;;10379399;28;20019;-63
2022/02/07 20:20:53;;;;;;;7.95;1.58;;;2.80;99.90;;;;;;10383852;28;20358;-63
2022/02/07 20:25:55;;;;;;;4.03;0.90;;;2.80;99.90;;;;;;10377726;28;20119;-64
2022/02/07 20:30:58;;;;;;;4.63;0.85;;;2.70;99.90;;;;;;10377120;28;20132;-63
2022/02/07 20:36:00;;;;;;;5.10;0.85;;;2.80;99.90;;;;;;10375931;28;20038;-63
2022/02/07 20:41:03;;;;;;;6.47;0.98;;;2.80;99.90;;;;;;10386019;28;20049;-63
2022/02/07 20:46:06;;;;;;;2.30;0.77;;;2.80;99.90;;;;;;10378142;28;20140;-63
2022/02/07 20:51:08;;;;;;;6.40;1.10;;;2.80;99.90;;;;;;10379544;28;20491;-63
2022/02/07 20:56:10;;;;;;;7.93;1.15;;;2.70;99.90;;;;;;10385111;28;20443;-63
2022/02/07 21:01:32;;;;;;;5.82;1.42;;;2.60;99.90;;;;;;10379125;28;20052;-62
2022/02/07 21:06:36;;;;;;;5.90;1.58;;;2.50;99.90;;;;;;10377392;28;20061;-63
2022/02/07 21:11:40;;;;;;;5.93;1.05;;;2.40;99.90;;;;;;10378178;28;20131;-63
2022/02/07 21:16:43;;;;;;;4.32;0.70;;;2.30;99.90;;;;;;10381425;28;20037;-63
2022/02/07 21:21:44;;;;;;;4.28;0.85;;;2.20;99.90;;;;;;10375806;28;20051;-64
2022/02/07 21:26:46;;;;;;;2.58;0.75;;;2.30;99.90;;;;;;10381019;28;20088;-64
2022/02/07 21:31:48;;;;;;;3.58;0.68;;;2.30;99.90;;;;;;10393427;28;20061;-63
2022/02/07 21:36:50;;;;;;;5.63;0.65;;;2.50;99.90;;;;;;10388953;28;20569;-64
2022/02/07 21:41:52;;;;;;;5.63;0.68;;;2.70;99.90;;;;;;10387773;28;20045;-63
2022/02/07 21:46:57;;;;;;;5.20;0.73;;;2.80;99.90;;;;;;10389503;28;20390;-63
2022/02/07 21:51:59;;;;;;;3.03;0.55;;;2.80;99.90;;;;;;10389267;28;20077;-62
2022/02/07 21:57:01;;;;;;;4.30;0.60;;;2.80;99.90;;;;;;10385699;28;20532;-62
2022/02/07 22:02:03;;;;;;;1.13;0.77;;;2.90;99.90;;;;;;10387292;28;20119;-63
2022/02/07 22:07:05;;;;;;;7.65;0.80;;;3.00;99.90;;;;;;10386966;28;20103;-64
2022/02/07 22:12:16;;;;;;;7.78;0.80;;;3.10;99.90;;;;;;10387090;28;20124;-63
2022/02/07 22:17:27;;;;;;;5.15;0.70;;;3.10;99.90;;;;;;10387629;28;20140;-63
2022/02/07 22:22:29;;;;;;;5.10;0.60;;;3.20;99.90;;;;;;10384311;28;20135;-63
2022/02/07 22:27:31;;;;;;;4.43;0.88;;;3.30;99.90;;;;;;10387987;28;20152;-64
2022/02/07 22:32:33;;;;;;;6.65;0.88;;;3.20;99.90;;;;;;10382781;28;20141;-65
2022/02/07 22:37:35;;;;;;;12.07;1.60;;;3.30;99.90;;;;;;10382504;28;20166;-64
2022/02/07 22:42:37;;;;;;;12.10;1.17;;;3.30;99.90;;;;;;10385403;28;20069;-64
2022/02/07 22:47:40;;;;;;;5.88;0.60;;;3.30;99.90;;;;;;10382901;28;20115;-64
2022/02/07 22:52:47;;;;;;;5.28;0.80;;;3.30;99.90;;;;;;10381776;28;20088;-64
2022/02/07 22:57:48;;;;;;;3.58;0.60;;;3.30;99.90;;;;;;10380122;28;20144;-64
2022/02/07 23:02:52;;;;;;;3.55;0.70;;;3.20;99.90;;;;;;10384752;28;20406;-64
2022/02/07 23:08:09;;;;;;;7.32;1.20;;;3.30;99.90;;;;;;10380425;28;20119;-64
2022/02/07 23:18:20;;;;;;;6.15;1.23;;;3.40;99.90;;;;;;10380961;28;20057;-64
2022/02/07 23:39:18;;;;;;;7.57;0.93;;;3.50;99.90;;;;;;10379890;28;20152;-64
2022/02/07 23:44:23;;;;;;;3.42;0.63;;;3.50;99.90;;;;;;10376753;28;20045;-64
2022/02/07 23:49:33;;;;;;;1.85;0.52;;;3.50;99.90;;;;;;10384407;28;20072;-65
2022/02/07 23:54:47;;;;;;;5.88;0.80;;;3.50;99.90;;;;;;10381829;28;20088;-64
